Time;durP1;ratioP1;P1;durP2;ratioP2;P2;SDS_P1;SDS_P2;PMS_P1;PMS_P2;Temp;Humidity;BMP_temperature;BMP_pressure;BME280_temperature;BME280_humidity;BME280_pressure;Samples;Min_cycle;Max_cycle;Signal;HPM_P1;HPM_P2
2022/07/10 00:01:14;;;;;;;;;;;;;;;21.04;43.78;100434.81;5328381;32;34992;-80
2022/07/10 00:04:16;;;;;;;;;;;;;;;21.54;42.90;100428.97;5326266;32;34539;-78
2022/07/10 00:07:18;;;;;;;;;;;;;;;21.31;43.37;100422.84;5349629;32;35538;-78
2022/07/10 00:10:20;;;;;;;;;;;;;;;20.63;45.32;100432.84;5346002;32;44573;-80
2022/07/10 00:13:23;;;;;;;;;;;;;;;21.81;42.91;100421.25;5325987;32;34240;-79
2022/07/10 00:16:25;;;;;;;;;;;;;;;21.42;43.86;100409.44;5328970;32;34476;-79
2022/07/10 00:19:27;;;;;;;;;;;;;;;20.93;45.67;100420.63;5327714;32;35669;-80
2022/07/10 00:22:28;;;;;;;;;;;;;;;20.65;46.72;100414.88;5349881;32;34309;-78
2022/07/10 00:25:30;;;;;;;;;;;;;;;21.44;45.38;100404.81;5320715;32;34696;-78
2022/07/10 00:28:32;;;;;;;;;;;;;;;20.79;47.30;100416.44;5348484;32;34655;-80
2022/07/10 00:31:35;;;;;;;;;;;;;;;20.85;47.38;100409.75;5331746;32;34863;-78
2022/07/10 00:34:37;;;;;;;;;;;;;;;21.61;45.11;100406.91;5334344;32;34136;-78
2022/07/10 00:37:39;;;;;;;;;;;;;;;21.66;45.16;100411.88;5343718;32;35057;-80
2022/07/10 00:40:41;;;;;;;;;;;;;;;20.77;47.12;100421.06;5328848;32;35041;-78
2022/07/10 00:43:56;;;;;;;;;;;;;;;21.05;46.81;100427.66;5348767;32;34156;-79
2022/07/10 00:46:58;;;;;;;;;;;;;;;21.12;46.76;100412.81;5329883;32;45826;-78
2022/07/10 00:50:00;;;;;;;;;;;;;;;20.28;49.02;100415.09;5344944;32;35015;-78
2022/07/10 00:53:04;;;;;;;;;;;;;;;20.92;47.47;100414.44;5336944;32;34969;-78
2022/07/10 00:56:07;;;;;;;;;;;;;;;19.47;51.66;100410.72;5330494;32;34505;-79
2022/07/10 00:59:09;;;;;;;;;;;;;;;20.32;49.75;100412.22;5345458;32;34538;-79
2022/07/10 01:02:11;;;;;;;;;;;;;;;19.84;51.06;100399.94;5307146;32;34603;-78
2022/07/10 01:05:13;;;;;;;;;;;;;;;20.28;49.98;100408.91;5335236;32;34600;-79
2022/07/10 01:08:15;;;;;;;;;;;;;;;20.28;50.30;100400.91;5337686;32;34891;-78
2022/07/10 01:11:17;;;;;;;;;;;;;;;20.34;50.12;100395.09;5358565;32;33494;-78
2022/07/10 01:14:19;;;;;;;;;;;;;;;20.00;50.80;100397.75;5330673;32;45653;-78
2022/07/10 01:17:21;;;;;;;;;;;;;;;19.94;51.14;100403.56;5339216;32;34549;-79
2022/07/10 01:20:29;;;;;;;;;;;;;;;20.62;49.13;100406.28;5344034;32;35675;-80
2022/07/10 01:23:31;;;;;;;;;;;;;;;19.90;51.32;100402.13;5317259;32;35946;-80
2022/07/10 01:26:32;;;;;;;;;;;;;;;19.95;51.03;100396.41;5348170;32;35206;-79
2022/07/10 01:29:35;;;;;;;;;;;;;;;20.57;49.26;100387.94;5328916;32;34495;-79
2022/07/10 01:32:40;;;;;;;;;;;;;;;20.20;50.19;100388.19;5342425;32;34306;-77
2022/07/10 01:35:42;;;;;;;;;;;;;;;19.71;51.50;100383.19;5339472;32;35687;-79
2022/07/10 01:38:44;;;;;;;;;;;;;;;20.83;48.54;100378.66;5329791;32;34768;-80
2022/07/10 01:41:46;;;;;;;;;;;;;;;20.55;49.09;100372.06;5348315;32;34634;-80
2022/07/10 01:44:48;;;;;;;;;;;;;;;20.35;49.94;100370.13;5327406;32;34312;-79
2022/07/10 01:47:50;;;;;;;;;;;;;;;19.77;52.08;100373.84;5346112;32;45426;-78
2022/07/10 01:50:52;;;;;;;;;;;;;;;19.13;54.16;100380.44;5329454;32;34700;-79
2022/07/10 01:53:55;;;;;;;;;;;;;;;20.19;51.13;100374.97;5336523;32;36157;-78
2022/07/10 01:56:57;;;;;;;;;;;;;;;20.16;51.18;100372.56;5326187;32;34347;-80
2022/07/10 01:59:59;;;;;;;;;;;;;;;20.07;51.47;100368.78;5326141;32;34376;-79
2022/07/10 02:06:23;;;;;;;;;;;;;;;19.56;52.77;100355.00;5291985;32;44585;-81
2022/07/10 02:09:25;;;;;;;;;;;;;;;20.18;51.19;100359.94;5344789;32;34283;-77
2022/07/10 02:12:27;;;;;;;;;;;;;;;19.40;53.95;100369.50;5327066;32;34939;-79
2022/07/10 02:15:29;;;;;;;;;;;;;;;19.51;53.91;100365.16;5326557;32;34904;-79
2022/07/10 02:18:32;;;;;;;;;;;;;;;19.52;53.90;100364.22;5343695;32;35979;-81
2022/07/10 02:21:34;;;;;;;;;;;;;;;19.53;54.17;100360.56;5313771;32;35391;-78
2022/07/10 02:24:37;;;;;;;;;;;;;;;19.58;54.23;100358.41;5347357;32;34290;-80
2022/07/10 02:27:38;;;;;;;;;;;;;;;19.97;52.75;100357.16;5329555;32;34869;-79
2022/07/10 02:30:41;;;;;;;;;;;;;;;19.59;54.04;100349.47;5330170;32;34171;-80
2022/07/10 02:33:43;;;;;;;;;;;;;;;19.13;55.29;100355.63;5329161;32;34838;-79
2022/07/10 02:36:45;;;;;;;;;;;;;;;19.49;54.19;100358.13;5330311;32;34231;-79
2022/07/10 02:39:47;;;;;;;;;;;;;;;19.18;55.33;100356.09;5344566;32;34225;-81
2022/07/10 02:42:49;;;;;;;;;;;;;;;19.22;55.79;100354.91;5329581;32;45530;-78
2022/07/10 02:45:51;;;;;;;;;;;;;;;19.26;55.87;100355.53;5348396;32;35592;-79
2022/07/10 02:48:53;;;;;;;;;;;;;;;18.91;57.18;100343.03;5327949;32;34485;-79
2022/07/10 02:51:55;;;;;;;;;;;;;;;19.19;56.55;100352.47;5343757;32;34982;-80
2022/07/10 02:54:57;;;;;;;;;;;;;;;18.83;57.54;100356.06;5328664;32;34894;-80
2022/07/10 02:57:59;;;;;;;;;;;;;;;19.04;57.05;100359.78;5330225;32;35130;-79
2022/07/10 03:01:01;;;;;;;;;;;;;;;19.47;55.86;100346.75;5315415;32;35407;-78
2022/07/10 03:04:03;;;;;;;;;;;;;;;19.97;53.88;100355.34;5318845;32;34803;-79
2022/07/10 03:07:05;;;;;;;;;;;;;;;19.32;56.29;100345.25;5335077;32;34752;-79
2022/07/10 03:10:07;;;;;;;;;;;;;;;18.77;58.08;100353.84;5329364;32;36709;-78
2022/07/10 03:13:09;;;;;;;;;;;;;;;19.35;56.48;100353.00;5344186;32;35554;-79
2022/07/10 03:16:11;;;;;;;;;;;;;;;19.27;56.50;100358.06;5331755;32;35489;-77
2022/07/10 03:19:13;;;;;;;;;;;;;;;19.54;55.63;100357.78;5323219;32;35315;-79
2022/07/10 03:22:15;;;;;;;;;;;;;;;18.63;58.89;100368.16;5350044;32;35368;-81
2022/07/10 03:25:17;;;;;;;;;;;;;;;18.60;59.72;100365.69;5330820;32;36868;-78
2022/07/10 03:28:19;;;;;;;;;;;;;;;18.79;59.02;100360.75;5347877;32;44890;-83
2022/07/10 03:31:21;;;;;;;;;;;;;;;18.68;59.09;100352.72;5331133;32;34550;-81
2022/07/10 03:34:23;;;;;;;;;;;;;;;18.40;60.56;100361.81;5341863;32;34805;-78
2022/07/10 03:37:26;;;;;;;;;;;;;;;18.78;58.65;100359.06;5323986;32;35301;-78
2022/07/10 03:40:28;;;;;;;;;;;;;;;19.16;58.21;100348.22;5327674;32;36946;-78
2022/07/10 03:43:29;;;;;;;;;;;;;;;18.80;59.13;100357.12;5347797;32;34936;-78
2022/07/10 03:46:31;;;;;;;;;;;;;;;19.54;56.90;100349.78;5331739;32;33982;-80
2022/07/10 03:49:33;;;;;;;;;;;;;;;18.64;59.63;100337.91;5348344;32;34648;-78
2022/07/10 03:52:35;;;;;;;;;;;;;;;19.16;57.86;100347.38;5329014;32;35644;-79
2022/07/10 03:55:37;;;;;;;;;;;;;;;18.78;59.48;100337.75;5346033;32;33104;-78
2022/07/10 03:58:39;;;;;;;;;;;;;;;19.25;57.79;100335.16;5321301;32;35494;-79
2022/07/10 04:01:41;;;;;;;;;;;;;;;19.85;56.29;100334.97;5301124;32;34254;-79
2022/07/10 04:04:43;;;;;;;;;;;;;;;19.62;56.37;100327.91;5343358;32;35616;-78
2022/07/10 04:07:46;;;;;;;;;;;;;;;20.07;55.08;100326.09;5329300;32;35551;-80
2022/07/10 04:10:48;;;;;;;;;;;;;;;19.80;55.96;100328.28;5348561;32;37825;-79
2022/07/10 04:13:50;;;;;;;;;;;;;;;19.10;57.76;100324.72;5329224;32;44824;-78
2022/07/10 04:16:53;;;;;;;;;;;;;;;19.64;55.83;100325.94;5337119;32;33858;-79
2022/07/10 04:19:55;;;;;;;;;;;;;;;19.31;56.55;100321.38;5341451;32;33141;-81
2022/07/10 04:22:57;;;;;;;;;;;;;;;20.22;54.03;100322.22;5328264;32;35591;-81
2022/07/10 04:25:59;;;;;;;;;;;;;;;19.75;55.21;100321.47;5348829;32;34374;-78
2022/07/10 04:29:01;;;;;;;;;;;;;;;19.76;55.08;100319.66;5329612;32;34342;-79
2022/07/10 04:32:03;;;;;;;;;;;;;;;20.70;52.76;100321.03;5346401;32;35054;-80
2022/07/10 04:35:05;;;;;;;;;;;;;;;21.00;51.85;100312.31;5328834;32;35162;-80
2022/07/10 04:38:07;;;;;;;;;;;;;;;21.27;50.70;100309.13;5329428;32;35026;-81
2022/07/10 04:41:09;;;;;;;;;;;;;;;20.96;51.96;100311.72;5352183;32;34895;-80
2022/07/10 04:44:11;;;;;;;;;;;;;;;21.30;50.85;100309.75;5326784;32;34217;-78
2022/07/10 04:47:13;;;;;;;;;;;;;;;21.70;49.30;100310.81;5347842;32;34210;-80
2022/07/10 04:50:15;;;;;;;;;;;;;;;21.76;49.57;100305.78;5315029;32;35254;-78
2022/07/10 04:53:17;;;;;;;;;;;;;;;21.69;49.53;100301.94;5333055;32;33535;-80
2022/07/10 04:56:19;;;;;;;;;;;;;;;22.96;46.12;100298.66;5329630;32;44899;-79
2022/07/10 04:59:22;;;;;;;;;;;;;;;23.09;45.78;100291.16;5336527;32;35555;-80
2022/07/10 05:02:24;;;;;;;;;;;;;;;22.25;47.91;100298.81;5315157;32;35313;-79
2022/07/10 05:05:27;;;;;;;;;;;;;;;21.59;49.54;100303.75;5330671;32;33785;-79
2022/07/10 05:08:29;;;;;;;;;;;;;;;23.17;45.52;100287.75;5334339;32;33133;-80
2022/07/10 05:11:31;;;;;;;;;;;;;;;22.40;47.36;100291.22;5330485;32;34369;-81
2022/07/10 05:14:33;;;;;;;;;;;;;;;22.02;48.31;100290.09;5347396;32;34985;-79
2022/07/10 05:17:35;;;;;;;;;;;;;;;22.23;47.79;100283.88;5338832;32;34569;-81
2022/07/10 05:20:41;;;;;;;;;;;;;;;23.05;45.99;100286.22;5323918;32;34250;-78
2022/07/10 05:23:43;;;;;;;;;;;;;;;23.48;44.54;100280.38;5334119;32;35530;-78
2022/07/10 05:26:45;;;;;;;;;;;;;;;23.05;45.51;100281.69;5330617;32;35132;-80
2022/07/10 05:29:47;;;;;;;;;;;;;;;23.66;44.77;100285.84;5346282;32;35641;-80
2022/07/10 05:32:48;;;;;;;;;;;;;;;23.68;44.19;100279.34;5327651;32;37375;-81
2022/07/10 05:35:50;;;;;;;;;;;;;;;25.26;40.40;100269.97;5358871;32;34132;-79
2022/07/10 05:38:52;;;;;;;;;;;;;;;23.07;44.70;100298.50;5330052;32;34911;-80
2022/07/10 05:41:55;;;;;;;;;;;;;;;23.81;43.43;100294.25;5323253;32;34924;-79
2022/07/10 05:44:57;;;;;;;;;;;;;;;25.43;39.85;100287.03;5340569;32;35899;-79
2022/07/10 05:47:59;;;;;;;;;;;;;;;26.02;38.13;100284.53;5315827;32;34093;-80
2022/07/10 05:51:02;;;;;;;;;;;;;;;25.29;39.46;100296.53;5346279;32;35354;-80
2022/07/10 05:54:23;;;;;;;;;;;;;;;25.46;38.87;100283.22;5330034;32;44649;-80
2022/07/10 05:57:25;;;;;;;;;;;;;;;26.27;37.51;100278.22;5342755;32;35252;-80
2022/07/10 06:00:27;;;;;;;;;;;;;;;25.14;40.33;100290.03;5320544;32;34530;-78
2022/07/10 06:03:29;;;;;;;;;;;;;;;24.54;41.52;100284.44;5306455;32;36160;-80
2022/07/10 06:06:31;;;;;;;;;;;;;;;24.95;40.44;100290.19;5348636;32;34302;-79
2022/07/10 06:09:33;;;;;;;;;;;;;;;25.91;38.30;100283.81;5318378;32;36565;-79
2022/07/10 06:12:37;;;;;;;;;;;;;;;23.90;42.31;100288.88;5345796;32;35035;-79
2022/07/10 06:15:39;;;;;;;;;;;;;;;24.69;40.10;100287.44;5327314;32;33011;-80
2022/07/10 06:18:41;;;;;;;;;;;;;;;25.03;39.72;100290.25;5337666;32;34580;-79
2022/07/10 06:21:44;;;;;;;;;;;;;;;23.68;42.50;100283.84;5331865;32;35055;-80
2022/07/10 06:24:46;;;;;;;;;;;;;;;25.69;38.06;100280.81;5328945;32;34825;-80
2022/07/10 06:27:48;;;;;;;;;;;;;;;25.64;37.52;100284.84;5345530;32;35379;-78
2022/07/10 06:30:50;;;;;;;;;;;;;;;25.17;39.04;100287.03;5328437;32;44924;-78
2022/07/10 06:33:59;;;;;;;;;;;;;;;26.15;37.21;100280.41;5346091;32;37499;-80
2022/07/10 06:37:01;;;;;;;;;;;;;;;26.11;36.93;100280.87;5329963;32;35737;-80
2022/07/10 06:40:03;;;;;;;;;;;;;;;26.36;36.02;100281.81;5336873;32;34522;-80
2022/07/10 06:43:05;;;;;;;;;;;;;;;25.87;36.47;100282.44;5337901;32;34292;-79
2022/07/10 06:46:07;;;;;;;;;;;;;;;25.80;36.29;100289.50;5315899;32;34498;-80
2022/07/10 06:49:09;;;;;;;;;;;;;;;25.21;37.50;100287.56;5346403;32;34581;-79
2022/07/10 06:52:12;;;;;;;;;;;;;;;26.92;33.70;100280.22;5327727;32;34216;-80
2022/07/10 06:55:14;;;;;;;;;;;;;;;27.20;32.62;100275.38;5344217;32;34603;-80
2022/07/10 06:58:15;;;;;;;;;;;;;;;26.53;32.94;100282.69;5313716;32;35124;-79
2022/07/10 07:01:17;;;;;;;;;;;;;;;26.55;33.58;100278.00;5315623;32;36832;-80
2022/07/10 07:04:19;;;;;;;;;;;;;;;26.65;33.62;100273.28;5336542;32;44835;-78
2022/07/10 07:07:21;;;;;;;;;;;;;;;27.80;31.56;100274.91;5327270;32;35357;-80
2022/07/10 07:10:26;;;;;;;;;;;;;;;28.57;30.44;100266.97;5365649;32;34821;-78
2022/07/10 07:13:28;;;;;;;;;;;;;;;29.41;28.41;100262.38;5314889;32;34333;-81
2022/07/10 07:16:42;;;;;;;;;;;;;;;28.50;29.61;100266.00;5343378;32;34201;-79
2022/07/10 07:23:10;;;;;;;;;;;;;;;27.04;31.68;100267.25;5327456;32;35979;-78
2022/07/10 07:26:12;;;;;;;;;;;;;;;28.01;30.17;100266.22;5346751;32;34289;-81
2022/07/10 07:29:15;;;;;;;;;;;;;;;28.64;29.67;100262.50;5327881;32;34251;-80
2022/07/10 07:32:17;;;;;;;;;;;;;;;26.59;32.80;100273.94;5341918;32;35134;-81
2022/07/10 07:35:19;;;;;;;;;;;;;;;27.00;31.73;100278.38;5327754;32;35693;-80
2022/07/10 07:38:21;;;;;;;;;;;;;;;26.06;33.69;100267.87;5336019;32;34672;-78
2022/07/10 07:41:23;;;;;;;;;;;;;;;27.94;30.80;100267.94;5323265;32;33303;-78
2022/07/10 07:44:25;;;;;;;;;;;;;;;26.46;32.38;100264.50;5324042;32;35049;-80
2022/07/10 07:47:30;;;;;;;;;;;;;;;26.95;30.78;100258.31;5343018;32;35380;-80
2022/07/10 07:50:33;;;;;;;;;;;;;;;28.60;28.05;100262.06;5327751;32;35907;-79
2022/07/10 07:53:35;;;;;;;;;;;;;;;28.25;28.67;100274.22;5330554;32;34962;-79
2022/07/10 07:56:37;;;;;;;;;;;;;;;27.97;29.70;100265.75;5326671;32;34753;-79
2022/07/10 07:59:39;;;;;;;;;;;;;;;27.54;30.09;100267.03;5333889;32;34987;-80
2022/07/10 08:02:41;;;;;;;;;;;;;;;29.09;27.68;100261.66;5314080;32;35349;-77
2022/07/10 08:05:44;;;;;;;;;;;;;;;29.57;27.10;100262.25;5317702;32;34303;-80
2022/07/10 08:08:45;;;;;;;;;;;;;;;30.59;25.50;100250.59;5355602;32;35783;-79
2022/07/10 08:11:48;;;;;;;;;;;;;;;31.15;25.31;100253.41;5340816;32;34962;-80
2022/07/10 08:14:49;;;;;;;;;;;;;;;30.56;24.91;100243.69;5345599;32;45046;-80
2022/07/10 08:17:52;;;;;;;;;;;;;;;27.44;29.66;100261.00;5327124;32;36405;-80
2022/07/10 08:20:55;;;;;;;;;;;;;;;29.37;26.64;100259.22;5324106;32;34723;-80
2022/07/10 08:23:56;;;;;;;;;;;;;;;28.66;27.14;100265.03;5343252;32;35473;-79
2022/07/10 08:26:58;;;;;;;;;;;;;;;28.45;27.27;100258.41;5328969;32;35473;-81
2022/07/10 08:30:00;;;;;;;;;;;;;;;30.25;25.16;100246.69;5333895;32;34870;-79
2022/07/10 08:33:02;;;;;;;;;;;;;;;27.68;29.31;100260.94;5330156;32;34398;-79
2022/07/10 08:36:05;;;;;;;;;;;;;;;30.36;26.55;100250.78;5344870;32;34330;-78
2022/07/10 08:39:27;;;;;;;;;;;;;;;29.36;27.29;100253.97;5322532;32;44733;-79
2022/07/10 08:42:29;;;;;;;;;;;;;;;28.79;27.81;100262.59;5314597;32;35776;-80
2022/07/10 08:45:33;;;;;;;;;;;;;;;28.51;28.27;100257.69;5348130;32;35464;-80
2022/07/10 08:48:35;;;;;;;;;;;;;;;29.92;25.89;100244.37;5326758;32;34602;-81
2022/07/10 08:51:40;;;;;;;;;;;;;;;29.07;27.83;100255.59;5343897;32;35137;-80
2022/07/10 08:54:43;;;;;;;;;;;;;;;26.81;31.13;100264.37;5332023;32;35274;-80
2022/07/10 08:57:45;;;;;;;;;;;;;;;26.82;30.48;100269.59;5339386;32;34407;-79
2022/07/10 09:00:48;;;;;;;;;;;;;;;28.15;28.17;100261.97;5322399;32;35359;-80
2022/07/10 09:03:52;;;;;;;;;;;;;;;28.05;28.41;100257.59;5320440;32;45442;-81
2022/07/10 09:06:54;;;;;;;;;;;;;;;29.10;26.30;100244.41;5332964;32;34247;-79
2022/07/10 09:09:57;;;;;;;;;;;;;;;29.86;25.63;100241.59;5328120;32;33094;-78
2022/07/10 09:13:01;;;;;;;;;;;;;;;28.04;28.34;100242.41;5346048;32;34284;-82
2022/07/10 09:16:03;;;;;;;;;;;;;;;28.39;27.77;100248.31;5327682;32;35227;-81
2022/07/10 09:19:17;;;;;;;;;;;;;;;27.94;28.89;100240.94;5339614;32;34478;-80
2022/07/10 09:22:19;;;;;;;;;;;;;;;26.73;30.55;100254.44;5341102;32;45073;-81
2022/07/10 09:25:22;;;;;;;;;;;;;;;26.12;31.38;100252.94;5328056;32;35170;-78
2022/07/10 09:28:23;;;;;;;;;;;;;;;26.90;30.09;100249.88;5344906;32;35085;-81
2022/07/10 09:31:25;;;;;;;;;;;;;;;27.39;29.25;100244.47;5329480;32;35934;-80
2022/07/10 09:34:36;;;;;;;;;;;;;;;28.06;26.92;100243.06;5345880;32;35528;-80
2022/07/10 09:37:39;;;;;;;;;;;;;;;29.43;25.06;100238.66;5329401;32;35406;-79
2022/07/10 09:40:41;;;;;;;;;;;;;;;29.37;25.93;100236.72;5327472;32;34805;-80
2022/07/10 09:44:02;;;;;;;;;;;;;;;29.90;25.10;100227.47;5347802;32;34270;-79
2022/07/10 09:47:04;;;;;;;;;;;;;;;29.80;24.43;100226.91;5331797;32;35019;-81
2022/07/10 09:50:25;;;;;;;;;;;;;;;27.85;27.38;100233.91;5344885;32;36965;-79
2022/07/10 09:53:27;;;;;;;;;;;;;;;29.26;25.57;100226.34;5331256;32;45924;-79
2022/07/10 09:56:52;;;;;;;;;;;;;;;31.28;22.87;100231.81;5329437;32;34648;-79
2022/07/10 09:59:54;;;;;;;;;;;;;;;29.89;24.88;100233.09;5325821;32;44553;-81
2022/07/10 10:03:00;;;;;;;;;;;;;;;28.25;26.71;100230.97;5307533;32;35694;-79
2022/07/10 10:06:03;;;;;;;;;;;;;;;28.23;27.52;100216.81;5334018;32;34765;-77
2022/07/10 10:09:07;;;;;;;;;;;;;;;29.71;25.98;100206.41;5316938;32;35542;-79
2022/07/10 10:12:16;;;;;;;;;;;;;;;30.28;24.87;100183.97;5333396;32;36116;-78
2022/07/10 10:15:18;;;;;;;;;;;;;;;28.20;27.38;100205.50;5340238;32;34683;-79
2022/07/10 10:18:21;;;;;;;;;;;;;;;29.97;25.00;100199.63;5325233;32;43987;-78
2022/07/10 10:21:24;;;;;;;;;;;;;;;29.70;24.69;100193.06;5331650;32;34879;-75
2022/07/10 10:24:27;;;;;;;;;;;;;;;30.17;24.63;100184.47;5334440;32;35222;-75
2022/07/10 10:27:29;;;;;;;;;;;;;;;28.16;26.44;100198.78;5335874;32;36344;-82
2022/07/10 10:30:31;;;;;;;;;;;;;;;29.71;23.94;100189.31;5328651;32;35833;-77
2022/07/10 10:33:42;;;;;;;;;;;;;;;27.93;26.11;100194.19;5317716;32;35413;-83
2022/07/10 10:36:45;;;;;;;;;;;;;;;28.64;25.25;100194.06;5345982;32;35055;-81
2022/07/10 10:39:57;;;;;;;;;;;;;;;28.06;25.98;100183.63;5316792;32;36609;-77
2022/07/10 10:43:17;;;;;;;;;;;;;;;30.03;23.51;100156.34;5345859;32;35481;-78
2022/07/10 10:46:25;;;;;;;;;;;;;;;30.54;23.04;100163.56;5332022;32;37607;-81
2022/07/10 10:49:48;;;;;;;;;;;;;;;30.62;22.91;100166.13;5330261;32;35255;-77
2022/07/10 10:52:59;;;;;;;;;;;;;;;31.36;21.76;100165.66;5346839;32;44656;-78
2022/07/10 10:56:10;;;;;;;;;;;;;;;28.72;24.31;100169.66;5326961;32;35909;-77
2022/07/10 10:59:32;;;;;;;;;;;;;;;29.34;23.65;100155.87;5344261;32;34341;-77
2022/07/10 11:02:36;;;;;;;;;;;;;;;29.70;22.95;100165.97;5297562;32;35294;-79
2022/07/10 11:05:41;;;;;;;;;;;;;;;29.45;22.78;100158.13;5328213;32;34367;-78
2022/07/10 11:08:46;;;;;;;;;;;;;;;28.92;23.01;100157.38;5345418;32;35079;-78
2022/07/10 11:11:57;;;;;;;;;;;;;;;30.22;21.68;100156.78;5333581;32;35130;-77
2022/07/10 11:15:06;;;;;;;;;;;;;;;29.91;21.20;100144.34;5337974;32;34346;-82
2022/07/10 11:18:09;;;;;;;;;;;;;;;32.30;19.28;100135.91;5317392;32;34328;-82
2022/07/10 11:21:12;;;;;;;;;;;;;;;30.86;21.23;100152.19;5331023;32;34281;-77
2022/07/10 11:24:33;;;;;;;;;;;;;;;30.27;22.25;100143.47;5342125;32;37246;-77
2022/07/10 11:27:47;;;;;;;;;;;;;;;29.04;23.39;100158.56;5328896;32;35013;-77
2022/07/10 11:30:49;;;;;;;;;;;;;;;30.29;21.96;100150.41;5341176;32;44685;-77
2022/07/10 11:33:52;;;;;;;;;;;;;;;30.90;21.17;100149.88;5326703;32;35062;-77
2022/07/10 11:36:54;;;;;;;;;;;;;;;30.69;21.41;100161.63;5327030;32;34963;-81
2022/07/10 11:40:09;;;;;;;;;;;;;;;29.16;23.05;100161.66;5327961;32;34752;-78
2022/07/10 11:43:16;;;;;;;;;;;;;;;28.22;23.53;100165.66;5340221;32;34435;-82
2022/07/10 11:46:20;;;;;;;;;;;;;;;27.16;25.41;100168.81;5361099;32;35046;-76
2022/07/10 11:49:22;;;;;;;;;;;;;;;26.49;26.65;100178.97;5329856;32;47796;-79
2022/07/10 11:52:24;;;;;;;;;;;;;;;27.40;26.13;100171.44;5331337;32;34181;-81
2022/07/10 11:55:26;;;;;;;;;;;;;;;27.94;25.30;100170.72;5330537;32;34908;-82
2022/07/10 11:58:28;;;;;;;;;;;;;;;28.53;24.26;100180.00;5332404;32;35728;-78
2022/07/10 12:01:32;;;;;;;;;;;;;;;28.03;25.12;100184.00;5324036;32;33767;-78
2022/07/10 12:04:35;;;;;;;;;;;;;;;30.05;22.66;100170.53;5312256;32;35169;-81
2022/07/10 12:07:38;;;;;;;;;;;;;;;30.13;22.33;100178.56;5346712;32;35159;-81
2022/07/10 12:10:43;;;;;;;;;;;;;;;28.03;24.96;100180.47;5346812;32;34313;-77
2022/07/10 12:13:45;;;;;;;;;;;;;;;27.70;25.31;100179.81;5344025;32;35186;-82
2022/07/10 12:16:48;;;;;;;;;;;;;;;27.25;25.71;100194.78;5339777;32;34362;-83
2022/07/10 12:19:53;;;;;;;;;;;;;;;26.49;26.49;100192.44;5332717;32;44641;-83
2022/07/10 12:22:55;;;;;;;;;;;;;;;26.15;27.44;100185.28;5334477;32;34499;-82
2022/07/10 12:25:57;;;;;;;;;;;;;;;26.68;26.29;100187.56;5291284;32;897722;-78
2022/07/10 12:28:59;;;;;;;;;;;;;;;26.43;25.77;100178.63;5345631;32;35382;-80
2022/07/10 12:32:01;;;;;;;;;;;;;;;26.49;26.15;100182.50;5335117;32;35493;-81
2022/07/10 12:35:05;;;;;;;;;;;;;;;25.57;27.61;100196.84;5339503;32;37497;-80
2022/07/10 12:38:14;;;;;;;;;;;;;;;26.26;27.14;100178.72;5336885;32;35423;-77
2022/07/10 12:41:21;;;;;;;;;;;;;;;26.62;26.51;100190.91;5316602;32;34409;-77
2022/07/10 12:44:33;;;;;;;;;;;;;;;26.10;27.45;100195.72;5343309;32;44528;-80
2022/07/10 12:47:48;;;;;;;;;;;;;;;26.16;27.43;100198.59;5329055;32;35580;-77
2022/07/10 12:50:50;;;;;;;;;;;;;;;25.78;27.38;100188.38;5329859;32;44526;-77
2022/07/10 12:53:52;;;;;;;;;;;;;;;24.59;29.85;100193.44;5330678;32;35840;-81
2022/07/10 12:56:58;;;;;;;;;;;;;;;25.17;29.22;100206.34;5332249;32;35674;-78
2022/07/10 13:00:04;;;;;;;;;;;;;;;24.79;29.35;100213.78;5339716;32;35226;-77
2022/07/10 13:03:08;;;;;;;;;;;;;;;25.49;27.76;100199.47;5311481;32;32994;-79
2022/07/10 13:06:29;;;;;;;;;;;;;;;25.70;26.47;100215.19;5349643;32;34318;-80
2022/07/10 13:09:31;;;;;;;;;;;;;;;25.15;27.88;100211.06;5329105;32;35669;-81
2022/07/10 13:12:33;;;;;;;;;;;;;;;25.22;27.83;100220.19;5334096;32;34763;-77
2022/07/10 13:15:46;;;;;;;;;;;;;;;24.77;28.15;100209.56;5344620;32;36026;-81
2022/07/10 13:18:48;;;;;;;;;;;;;;;24.72;28.35;100207.34;5321151;32;34431;-77
2022/07/10 13:21:50;;;;;;;;;;;;;;;25.11;28.29;100213.19;5331097;32;44907;-77
2022/07/10 13:24:52;;;;;;;;;;;;;;;26.04;27.27;100220.59;5329091;32;34659;-78
2022/07/10 13:27:54;;;;;;;;;;;;;;;25.60;26.99;100213.50;5330838;32;34739;-81
2022/07/10 13:30:56;;;;;;;;;;;;;;;25.44;27.03;100213.44;5330871;32;34803;-77
2022/07/10 13:33:58;;;;;;;;;;;;;;;25.07;27.96;100224.44;5315197;32;35297;-80
2022/07/10 13:37:00;;;;;;;;;;;;;;;25.77;27.72;100203.69;5352323;32;34789;-78
2022/07/10 13:40:03;;;;;;;;;;;;;;;26.02;27.10;100195.66;5331464;32;34819;-81
2022/07/10 13:43:06;;;;;;;;;;;;;;;25.63;26.65;100201.56;5343916;32;35065;-79
2022/07/10 13:46:08;;;;;;;;;;;;;;;25.87;26.46;100199.00;5333999;32;34278;-81
2022/07/10 13:49:09;;;;;;;;;;;;;;;25.98;26.39;100210.47;5343169;32;34164;-80
2022/07/10 13:52:11;;;;;;;;;;;;;;;25.90;26.04;100185.22;5334828;32;34711;-77
2022/07/10 13:55:14;;;;;;;;;;;;;;;25.91;26.08;100191.44;5316629;32;34973;-81
2022/07/10 13:58:17;;;;;;;;;;;;;;;25.71;26.46;100187.31;5345561;32;34481;-82
2022/07/10 14:01:19;;;;;;;;;;;;;;;24.94;26.35;100197.09;5314788;32;43112;-81
2022/07/10 14:04:21;;;;;;;;;;;;;;;25.50;25.66;100195.78;5340415;32;35308;-82
2022/07/10 14:07:23;;;;;;;;;;;;;;;25.00;26.83;100188.41;5330571;32;34384;-80
2022/07/10 14:10:25;;;;;;;;;;;;;;;24.74;27.64;100194.59;5360928;32;35379;-77
2022/07/10 14:13:27;;;;;;;;;;;;;;;25.48;26.43;100200.47;5321052;32;36305;-77
2022/07/10 14:16:31;;;;;;;;;;;;;;;25.45;25.77;100173.91;5329531;32;34834;-77
2022/07/10 14:19:33;;;;;;;;;;;;;;;25.82;24.65;100189.72;5330964;32;34976;-80
2022/07/10 14:22:35;;;;;;;;;;;;;;;24.98;23.80;100210.06;5329903;32;34374;-83
2022/07/10 14:25:37;;;;;;;;;;;;;;;24.62;23.82;100205.75;5331372;32;34154;-77
2022/07/10 14:28:39;;;;;;;;;;;;;;;24.37;24.61;100202.00;5329492;32;34122;-77
2022/07/10 14:31:43;;;;;;;;;;;;;;;25.45;23.21;100195.44;5341846;32;34380;-76
2022/07/10 14:34:45;;;;;;;;;;;;;;;24.84;24.50;100205.25;5335678;32;35425;-77
2022/07/10 14:37:47;;;;;;;;;;;;;;;24.95;24.61;100196.09;5329290;32;35969;-81
2022/07/10 14:40:52;;;;;;;;;;;;;;;24.87;24.33;100204.94;5344502;32;45243;-82
2022/07/10 14:43:54;;;;;;;;;;;;;;;25.18;24.50;100196.44;5328886;32;35405;-82
2022/07/10 14:46:56;;;;;;;;;;;;;;;25.32;24.19;100203.94;5346732;32;35023;-77
2022/07/10 14:49:58;;;;;;;;;;;;;;;24.77;24.62;100188.91;5329987;32;35232;-83
2022/07/10 14:53:00;;;;;;;;;;;;;;;25.05;23.96;100210.31;5338473;32;35335;-77
2022/07/10 14:56:03;;;;;;;;;;;;;;;24.88;24.43;100222.75;5340057;32;34717;-82
2022/07/10 14:59:05;;;;;;;;;;;;;;;24.85;23.73;100228.44;5325918;32;34608;-76
2022/07/10 15:02:16;;;;;;;;;;;;;;;24.64;24.24;100234.16;5322487;32;34206;-78
2022/07/10 15:05:19;;;;;;;;;;;;;;;25.20;23.42;100237.47;5329201;32;34681;-79
2022/07/10 15:08:21;;;;;;;;;;;;;;;25.01;23.79;100238.50;5334239;32;35594;-76
2022/07/10 15:11:23;;;;;;;;;;;;;;;24.88;24.49;100240.75;5331165;32;34920;-79
2022/07/10 15:14:27;;;;;;;;;;;;;;;23.89;25.74;100238.00;5329147;32;35043;-80
2022/07/10 15:17:29;;;;;;;;;;;;;;;24.13;25.49;100227.56;5352130;32;35066;-76
2022/07/10 15:20:31;;;;;;;;;;;;;;;24.72;24.46;100239.59;5331612;32;35321;-78
2022/07/10 15:23:33;;;;;;;;;;;;;;;25.03;23.95;100244.53;5342520;32;34582;-77
2022/07/10 15:26:35;;;;;;;;;;;;;;;25.00;23.12;100231.44;5332962;32;34118;-77
2022/07/10 15:29:37;;;;;;;;;;;;;;;24.36;24.06;100243.28;5345305;32;35020;-77
2022/07/10 15:32:39;;;;;;;;;;;;;;;24.40;24.28;100242.81;5331824;32;34600;-80
2022/07/10 15:35:41;;;;;;;;;;;;;;;24.04;24.67;100244.56;5328510;32;34936;-82
2022/07/10 15:38:43;;;;;;;;;;;;;;;23.93;25.13;100259.03;5344136;32;34580;-78
2022/07/10 15:41:46;;;;;;;;;;;;;;;23.75;25.49;100253.59;5329695;32;34135;-81
2022/07/10 15:44:48;;;;;;;;;;;;;;;24.20;24.94;100249.28;5343127;32;34248;-81
2022/07/10 15:47:50;;;;;;;;;;;;;;;23.83;25.57;100249.31;5329574;32;48052;-81